sensor_id;sensor_type;location;lat;lon;timestamp;pressure;altitude;pressure_sealevel;temperature;humidity
63190;BME280;49286;44.460;26.114;2023-06-14T00:00:47;100194.13;;;17.25;100.00
63190;BME280;49286;44.460;26.114;2023-06-14T00:03:14;100234.56;;;17.33;100.00
63190;BME280;49286;44.460;26.114;2023-06-14T00:05:42;100202.38;;;17.16;100.00
63190;BME280;49286;44.460;26.114;2023-06-14T00:08:09;100307.25;;;17.85;100.00
63190;BME280;49286;44.460;26.114;2023-06-14T00:10:36;100155.06;;;17.02;100.00
63190;BME280;49286;44.460;26.114;2023-06-14T00:13:04;100192.44;;;16.93;100.00
63190;BME280;49286;44.460;26.114;2023-06-14T00:15:33;100299.50;;;17.78;100.00
63190;BME280;49286;44.460;26.114;2023-06-14T00:17:59;100277.06;;;17.60;100.00
63190;BME280;49286;44.460;26.114;2023-06-14T00:20:28;100298.00;;;17.69;100.00
63190;BME280;49286;44.460;26.114;2023-06-14T00:22:54;100282.25;;;17.63;100.00
63190;BME280;49286;44.460;26.114;2023-06-14T00:25:24;100291.78;;;17.70;100.00
63190;BME280;49286;44.460;26.114;2023-06-14T00:27:54;100219.91;;;17.21;100.00
63190;BME280;49286;44.460;26.114;2023-06-14T00:30:20;100298.94;;;17.68;100.00
63190;BME280;49286;44.460;26.114;2023-06-14T00:32:46;100292.72;;;17.67;100.00
63190;BME280;49286;44.460;26.114;2023-06-14T00:35:12;100185.75;;;17.11;100.00
63190;BME280;49286;44.460;26.114;2023-06-14T00:37:39;100180.66;;;17.04;100.00
63190;BME280;49286;44.460;26.114;2023-06-14T00:40:05;100287.41;;;17.39;100.00
63190;BME280;49286;44.460;26.114;2023-06-14T00:42:32;100178.47;;;16.87;100.00
63190;BME280;49286;44.460;26.114;2023-06-14T00:44:57;100164.59;;;16.79;100.00
63190;BME280;49286;44.460;26.114;2023-06-14T00:47:23;100147.97;;;16.73;100.00
63190;BME280;49286;44.460;26.114;2023-06-14T00:49:53;100246.00;;;17.35;100.00
63190;BME280;49286;44.460;26.114;2023-06-14T00:52:19;100146.09;;;16.46;100.00
63190;BME280;49286;44.460;26.114;2023-06-14T00:54:46;100157.50;;;16.49;100.00
63190;BME280;49286;44.460;26.114;2023-06-14T00:57:12;100115.31;;;16.42;100.00
63190;BME280;49286;44.460;26.114;2023-06-14T00:59:48;100123.97;;;16.48;100.00
63190;BME280;49286;44.460;26.114;2023-06-14T01:02:16;100160.28;;;16.74;100.00
63190;BME280;49286;44.460;26.114;2023-06-14T01:04:45;100268.75;;;17.42;100.00
63190;BME280;49286;44.460;26.114;2023-06-14T01:12:14;100272.66;;;17.30;100.00
63190;BME280;49286;44.460;26.114;2023-06-14T01:14:41;100197.72;;;16.94;100.00
63190;BME280;49286;44.460;26.114;2023-06-14T01:17:08;100165.00;;;16.33;100.00
63190;BME280;49286;44.460;26.114;2023-06-14T01:19:42;100187.53;;;16.48;100.00
63190;BME280;49286;44.460;26.114;2023-06-14T01:22:10;100202.56;;;16.47;100.00
63190;BME280;49286;44.460;26.114;2023-06-14T01:24:36;100231.97;;;16.69;100.00
63190;BME280;49286;44.460;26.114;2023-06-14T01:27:02;100209.88;;;16.70;100.00
63190;BME280;49286;44.460;26.114;2023-06-14T01:29:29;100205.22;;;16.47;100.00
63190;BME280;49286;44.460;26.114;2023-06-14T01:32:01;100261.78;;;16.77;100.00
63190;BME280;49286;44.460;26.114;2023-06-14T01:34:27;100216.25;;;16.63;100.00
63190;BME280;49286;44.460;26.114;2023-06-14T01:36:53;100149.16;;;16.31;100.00
63190;BME280;49286;44.460;26.114;2023-06-14T01:39:22;100130.81;;;15.92;100.00
63190;BME280;49286;44.460;26.114;2023-06-14T01:41:49;100219.13;;;16.55;100.00
63190;BME280;49286;44.460;26.114;2023-06-14T01:44:16;100252.81;;;16.50;100.00
63190;BME280;49286;44.460;26.114;2023-06-14T01:46:43;100160.81;;;15.91;100.00
63190;BME280;49286;44.460;26.114;2023-06-14T01:49:09;100249.50;;;16.42;100.00
63190;BME280;49286;44.460;26.114;2023-06-14T01:51:34;100156.63;;;15.82;100.00
63190;BME280;49286;44.460;26.114;2023-06-14T01:54:00;100253.34;;;16.30;100.00
63190;BME280;49286;44.460;26.114;2023-06-14T01:56:26;100233.00;;;16.32;100.00
63190;BME280;49286;44.460;26.114;2023-06-14T01:58:52;100260.75;;;16.50;100.00
63190;BME280;49286;44.460;26.114;2023-06-14T02:01:19;100201.03;;;16.06;100.00
63190;BME280;49286;44.460;26.114;2023-06-14T02:03:46;100175.25;;;15.78;100.00
63190;BME280;49286;44.460;26.114;2023-06-14T02:06:12;100271.03;;;16.30;100.00
63190;BME280;49286;44.460;26.114;2023-06-14T02:08:39;100241.63;;;16.06;100.00
63190;BME280;49286;44.460;26.114;2023-06-14T02:11:05;100127.53;;;15.47;100.00
63190;BME280;49286;44.460;26.114;2023-06-14T02:13:30;100176.94;;;15.82;100.00
63190;BME280;49286;44.460;26.114;2023-06-14T02:15:56;100259.03;;;16.15;100.00
63190;BME280;49286;44.460;26.114;2023-06-14T02:18:23;100252.34;;;16.00;100.00
63190;BME280;49286;44.460;26.114;2023-06-14T02:20:48;100134.00;;;15.33;100.00
63190;BME280;49286;44.460;26.114;2023-06-14T02:23:14;100262.78;;;16.06;100.00
63190;BME280;49286;44.460;26.114;2023-06-14T02:25:40;100250.88;;;15.88;100.00
63190;BME280;49286;44.460;26.114;2023-06-14T02:28:05;100065.53;;;14.87;100.00
63190;BME280;49286;44.460;26.114;2023-06-14T02:30:31;100201.88;;;15.73;100.00
63190;BME280;49286;44.460;26.114;2023-06-14T02:32:56;100211.59;;;15.70;100.00
63190;BME280;49286;44.460;26.114;2023-06-14T02:35:22;100262.72;;;16.09;100.00
63190;BME280;49286;44.460;26.114;2023-06-14T02:37:51;100156.25;;;15.25;100.00
63190;BME280;49286;44.460;26.114;2023-06-14T02:40:18;100168.47;;;15.29;100.00
63190;BME280;49286;44.460;26.114;2023-06-14T02:42:45;100287.84;;;15.91;100.00
63190;BME280;49286;44.460;26.114;2023-06-14T02:45:11;100174.13;;;15.15;100.00
63190;BME280;49286;44.460;26.114;2023-06-14T02:47:37;100124.25;;;14.99;100.00
63190;BME280;49286;44.460;26.114;2023-06-14T02:50:02;100247.25;;;15.92;100.00
63190;BME280;49286;44.460;26.114;2023-06-14T02:52:29;100179.66;;;15.41;100.00
63190;BME280;49286;44.460;26.114;2023-06-14T02:54:54;100262.22;;;15.93;100.00
63190;BME280;49286;44.460;26.114;2023-06-14T02:57:21;100175.13;;;15.47;100.00
63190;BME280;49286;44.460;26.114;2023-06-14T02:59:47;100187.66;;;15.38;100.00
63190;BME280;49286;44.460;26.114;2023-06-14T03:02:12;100206.53;;;15.60;100.00
63190;BME280;49286;44.460;26.114;2023-06-14T03:04:38;100303.19;;;16.13;100.00
63190;BME280;49286;44.460;26.114;2023-06-14T03:07:04;100221.16;;;15.77;100.00
63190;BME280;49286;44.460;26.114;2023-06-14T03:09:37;100264.50;;;16.09;100.00
63190;BME280;49286;44.460;26.114;2023-06-14T03:12:04;100192.22;;;15.69;100.00
63190;BME280;49286;44.460;26.114;2023-06-14T03:14:32;100320.50;;;16.28;100.00
63190;BME280;49286;44.460;26.114;2023-06-14T03:16:57;100234.69;;;15.61;100.00
63190;BME280;49286;44.460;26.114;2023-06-14T03:19:24;100200.72;;;15.45;100.00
63190;BME280;49286;44.460;26.114;2023-06-14T03:21:50;100240.06;;;15.60;100.00
63190;BME280;49286;44.460;26.114;2023-06-14T03:24:16;100189.41;;;15.39;100.00
63190;BME280;49286;44.460;26.114;2023-06-14T03:26:42;100321.59;;;16.17;100.00
63190;BME280;49286;44.460;26.114;2023-06-14T03:29:09;100234.69;;;15.61;100.00
63190;BME280;49286;44.460;26.114;2023-06-14T03:31:35;100299.00;;;16.04;100.00
63190;BME280;49286;44.460;26.114;2023-06-14T03:34:01;100320.44;;;16.29;100.00
63190;BME280;49286;44.460;26.114;2023-06-14T03:36:27;100301.56;;;16.09;100.00
63190;BME280;49286;44.460;26.114;2023-06-14T03:38:53;100290.16;;;16.05;100.00
63190;BME280;49286;44.460;26.114;2023-06-14T03:41:20;100233.47;;;15.78;100.00
63190;BME280;49286;44.460;26.114;2023-06-14T03:43:45;100216.78;;;15.76;100.00
63190;BME280;49286;44.460;26.114;2023-06-14T03:46:11;100218.31;;;15.85;100.00
63190;BME280;49286;44.460;26.114;2023-06-14T03:48:36;100333.19;;;16.49;100.00
63190;BME280;49286;44.460;26.114;2023-06-14T03:51:02;100329.81;;;16.42;100.00
63190;BME280;49286;44.460;26.114;2023-06-14T03:53:27;100166.94;;;15.57;100.00
63190;BME280;49286;44.460;26.114;2023-06-14T03:55:54;100311.31;;;16.41;100.00
63190;BME280;49286;44.460;26.114;2023-06-14T03:58:20;100332.59;;;16.72;100.00
63190;BME280;49286;44.460;26.114;2023-06-14T04:00:46;100210.25;;;15.89;100.00
63190;BME280;49286;44.460;26.114;2023-06-14T04:03:11;100267.59;;;16.24;100.00
63190;BME280;49286;44.460;26.114;2023-06-14T04:05:39;100341.28;;;16.79;100.00
63190;BME280;49286;44.460;26.114;2023-06-14T04:08:08;100316.22;;;16.56;100.00
63190;BME280;49286;44.460;26.114;2023-06-14T04:10:34;100216.91;;;16.06;100.00
63190;BME280;49286;44.460;26.114;2023-06-14T04:13:00;100219.19;;;16.19;100.00
63190;BME280;49286;44.460;26.114;2023-06-14T04:15:25;100230.34;;;16.32;100.00
63190;BME280;49286;44.460;26.114;2023-06-14T04:17:53;100231.09;;;16.37;100.00
63190;BME280;49286;44.460;26.114;2023-06-14T04:20:23;100328.53;;;17.24;100.00
63190;BME280;49286;44.460;26.114;2023-06-14T04:22:50;100332.09;;;17.23;100.00
63190;BME280;49286;44.460;26.114;2023-06-14T04:25:15;100261.09;;;17.02;100.00
63190;BME280;49286;44.460;26.114;2023-06-14T04:27:42;100288.59;;;17.29;100.00
63190;BME280;49286;44.460;26.114;2023-06-14T04:30:08;100266.22;;;17.09;100.00
63190;BME280;49286;44.460;26.114;2023-06-14T04:32:33;100257.44;;;17.07;100.00
63190;BME280;49286;44.460;26.114;2023-06-14T04:35:00;100337.81;;;17.39;100.00
63190;BME280;49286;44.460;26.114;2023-06-14T04:37:27;100262.25;;;16.93;100.00
63190;BME280;49286;44.460;26.114;2023-06-14T04:39:55;100373.69;;;17.52;100.00
63190;BME280;49286;44.460;26.114;2023-06-14T04:42:21;100351.84;;;17.43;100.00
63190;BME280;49286;44.460;26.114;2023-06-14T04:44:50;100382.47;;;17.55;100.00
63190;BME280;49286;44.460;26.114;2023-06-14T04:47:16;100374.81;;;17.44;100.00
63190;BME280;49286;44.460;26.114;2023-06-14T04:49:42;100365.22;;;17.40;100.00
63190;BME280;49286;44.460;26.114;2023-06-14T04:52:08;100366.25;;;17.34;100.00
63190;BME280;49286;44.460;26.114;2023-06-14T04:54:38;100276.97;;;17.03;100.00
63190;BME280;49286;44.460;26.114;2023-06-14T04:57:04;100371.22;;;17.76;100.00
63190;BME280;49286;44.460;26.114;2023-06-14T04:59:31;100284.22;;;17.28;100.00
63190;BME280;49286;44.460;26.114;2023-06-14T05:01:58;100399.34;;;17.83;100.00
63190;BME280;49286;44.460;26.114;2023-06-14T05:04:25;100132.66;;;16.21;100.00
63190;BME280;49286;44.460;26.114;2023-06-14T05:06:52;100400.00;;;17.91;100.00
63190;BME280;49286;44.460;26.114;2023-06-14T05:09:20;100271.66;;;17.03;100.00
63190;BME280;49286;44.460;26.114;2023-06-14T05:11:46;100410.22;;;18.04;100.00
63190;BME280;49286;44.460;26.114;2023-06-14T05:14:13;100301.94;;;17.56;100.00
63190;BME280;49286;44.460;26.114;2023-06-14T05:16:39;100418.88;;;18.10;100.00
63190;BME280;49286;44.460;26.114;2023-06-14T05:19:05;100307.03;;;17.63;100.00
63190;BME280;49286;44.460;26.114;2023-06-14T05:21:31;100405.53;;;18.12;100.00
63190;BME280;49286;44.460;26.114;2023-06-14T05:23:59;100389.59;;;18.12;100.00
63190;BME280;49286;44.460;26.114;2023-06-14T05:26:24;100349.75;;;17.84;100.00
63190;BME280;49286;44.460;26.114;2023-06-14T05:28:54;100384.28;;;18.12;100.00
63190;BME280;49286;44.460;26.114;2023-06-14T05:31:22;100399.34;;;18.11;100.00
63190;BME280;49286;44.460;26.114;2023-06-14T05:33:48;100136.53;;;16.41;100.00
63190;BME280;49286;44.460;26.114;2023-06-14T05:36:13;100413.28;;;18.20;100.00
63190;BME280;49286;44.460;26.114;2023-06-14T05:38:39;100430.25;;;18.42;100.00
63190;BME280;49286;44.460;26.114;2023-06-14T05:41:04;100344.69;;;18.04;100.00
63190;BME280;49286;44.460;26.114;2023-06-14T05:43:30;100429.94;;;18.25;100.00
63190;BME280;49286;44.460;26.114;2023-06-14T05:45:57;100328.16;;;17.96;100.00
63190;BME280;49286;44.460;26.114;2023-06-14T05:48:22;100418.31;;;19.34;100.00
63190;BME280;49286;44.460;26.114;2023-06-14T05:50:47;100324.59;;;18.50;100.00
63190;BME280;49286;44.460;26.114;2023-06-14T05:53:13;100407.56;;;19.12;100.00
63190;BME280;49286;44.460;26.114;2023-06-14T05:55:38;100387.84;;;19.66;100.00
63190;BME280;49286;44.460;26.114;2023-06-14T05:58:04;100352.06;;;18.76;100.00
63190;BME280;49286;44.460;26.114;2023-06-14T06:00:29;100431.72;;;19.31;100.00
63190;BME280;49286;44.460;26.114;2023-06-14T06:02:55;100371.13;;;18.89;100.00
63190;BME280;49286;44.460;26.114;2023-06-14T06:05:23;100403.44;;;19.03;100.00
63190;BME280;49286;44.460;26.114;2023-06-14T06:07:48;100321.16;;;19.22;100.00
63190;BME280;49286;44.460;26.114;2023-06-14T06:10:14;100347.22;;;19.37;100.00
63190;BME280;49286;44.460;26.114;2023-06-14T06:12:42;100425.91;;;19.70;100.00
63190;BME280;49286;44.460;26.114;2023-06-14T06:15:08;100323.97;;;19.19;100.00
63190;BME280;49286;44.460;26.114;2023-06-14T06:17:37;100326.09;;;19.33;100.00
63190;BME280;49286;44.460;26.114;2023-06-14T06:20:04;100318.38;;;19.74;100.00
63190;BME280;49286;44.460;26.114;2023-06-14T06:22:31;100256.72;;;19.15;100.00
63190;BME280;49286;44.460;26.114;2023-06-14T06:24:56;100422.56;;;20.56;100.00
63190;BME280;49286;44.460;26.114;2023-06-14T06:27:22;100329.81;;;20.20;100.00
63190;BME280;49286;44.460;26.114;2023-06-14T06:29:47;100410.69;;;21.05;100.00
63190;BME280;49286;44.460;26.114;2023-06-14T06:32:16;100405.94;;;21.12;100.00
63190;BME280;49286;44.460;26.114;2023-06-14T06:34:42;100372.53;;;20.83;100.00
63190;BME280;49286;44.460;26.114;2023-06-14T06:37:08;100430.00;;;21.52;100.00
63190;BME280;49286;44.460;26.114;2023-06-14T06:39:33;100431.09;;;21.47;100.00
63190;BME280;49286;44.460;26.114;2023-06-14T06:41:58;100370.00;;;20.80;100.00
63190;BME280;49286;44.460;26.114;2023-06-14T06:44:24;100395.78;;;21.20;100.00
63190;BME280;49286;44.460;26.114;2023-06-14T06:46:50;100343.47;;;21.16;100.00
63190;BME280;49286;44.460;26.114;2023-06-14T06:49:15;100349.31;;;20.20;100.00
63190;BME280;49286;44.460;26.114;2023-06-14T06:51:41;100396.19;;;20.70;100.00
63190;BME280;49286;44.460;26.114;2023-06-14T06:54:08;100428.44;;;21.47;100.00
63190;BME280;49286;44.460;26.114;2023-06-14T06:56:34;100403.84;;;21.19;100.00
63190;BME280;49286;44.460;26.114;2023-06-14T06:59:00;100437.25;;;21.49;100.00
63190;BME280;49286;44.460;26.114;2023-06-14T07:01:25;100412.13;;;21.73;100.00
63190;BME280;49286;44.460;26.114;2023-06-14T07:03:51;100418.81;;;20.82;100.00
63190;BME280;49286;44.460;26.114;2023-06-14T07:06:17;100426.38;;;21.92;100.00
63190;BME280;49286;44.460;26.114;2023-06-14T07:08:44;100340.56;;;21.02;100.00
63190;BME280;49286;44.460;26.114;2023-06-14T07:11:10;100383.44;;;21.38;100.00
63190;BME280;49286;44.460;26.114;2023-06-14T07:13:35;100411.78;;;22.18;100.00
63190;BME280;49286;44.460;26.114;2023-06-14T07:16:01;100346.69;;;21.83;100.00
63190;BME280;49286;44.460;26.114;2023-06-14T07:18:27;100365.84;;;22.10;100.00
63190;BME280;49286;44.460;26.114;2023-06-14T07:20:56;100350.22;;;21.83;100.00
63190;BME280;49286;44.460;26.114;2023-06-14T07:23:22;100400.03;;;22.03;100.00
63190;BME280;49286;44.460;26.114;2023-06-14T07:25:48;100434.56;;;22.08;100.00
63190;BME280;49286;44.460;26.114;2023-06-14T07:28:13;100355.41;;;21.67;100.00
63190;BME280;49286;44.460;26.114;2023-06-14T07:30:39;100443.78;;;22.58;100.00
63190;BME280;49286;44.460;26.114;2023-06-14T07:33:05;100365.38;;;22.38;100.00
63190;BME280;49286;44.460;26.114;2023-06-14T07:35:31;100373.66;;;21.96;100.00
63190;BME280;49286;44.460;26.114;2023-06-14T07:37:56;100350.97;;;22.04;100.00
63190;BME280;49286;44.460;26.114;2023-06-14T07:40:22;100432.81;;;22.99;100.00
63190;BME280;49286;44.460;26.114;2023-06-14T07:42:47;100356.72;;;21.78;100.00
63190;BME280;49286;44.460;26.114;2023-06-14T07:45:15;100323.84;;;21.38;100.00
63190;BME280;49286;44.460;26.114;2023-06-14T07:47:40;100326.00;;;22.59;100.00
63190;BME280;49286;44.460;26.114;2023-06-14T07:50:06;100434.63;;;23.33;100.00
63190;BME280;49286;44.460;26.114;2023-06-14T07:52:32;100429.50;;;23.28;100.00
63190;BME280;49286;44.460;26.114;2023-06-14T07:54:57;100349.72;;;22.30;100.00
63190;BME280;49286;44.460;26.114;2023-06-14T07:57:23;100337.09;;;22.15;100.00
63190;BME280;49286;44.460;26.114;2023-06-14T07:59:49;100400.25;;;22.54;100.00
63190;BME280;49286;44.460;26.114;2023-06-14T08:02:15;100431.69;;;22.31;100.00
63190;BME280;49286;44.460;26.114;2023-06-14T08:04:41;100411.00;;;22.16;100.00
63190;BME280;49286;44.460;26.114;2023-06-14T08:07:07;100416.09;;;22.22;100.00
63190;BME280;49286;44.460;26.114;2023-06-14T08:09:32;100355.19;;;22.46;100.00
63190;BME280;49286;44.460;26.114;2023-06-14T08:11:58;100425.72;;;23.32;99.62
63190;BME280;49286;44.460;26.114;2023-06-14T08:14:23;100420.56;;;23.45;95.67
63190;BME280;49286;44.460;26.114;2023-06-14T08:16:49;100266.72;;;23.51;92.42
63190;BME280;49286;44.460;26.114;2023-06-14T08:19:15;100366.19;;;24.40;85.53
63190;BME280;49286;44.460;26.114;2023-06-14T08:21:42;100442.16;;;23.93;86.78
63190;BME280;49286;44.460;26.114;2023-06-14T08:24:10;100383.84;;;23.80;89.53
63190;BME280;49286;44.460;26.114;2023-06-14T08:26:38;100400.94;;;24.41;88.98
63190;BME280;49286;44.460;26.114;2023-06-14T08:29:04;100335.59;;;24.12;83.77
63190;BME280;49286;44.460;26.114;2023-06-14T08:31:30;100400.44;;;24.51;81.73
63190;BME280;49286;44.460;26.114;2023-06-14T08:33:57;100355.69;;;23.89;85.87
63190;BME280;49286;44.460;26.114;2023-06-14T08:36:23;100413.53;;;24.87;82.29
63190;BME280;49286;44.460;26.114;2023-06-14T08:38:51;100401.19;;;24.99;79.33
63190;BME280;49286;44.460;26.114;2023-06-14T08:41:22;100403.09;;;25.56;77.70
63190;BME280;49286;44.460;26.114;2023-06-14T08:43:52;100423.84;;;25.09;78.58
63190;BME280;49286;44.460;26.114;2023-06-14T08:46:18;100370.38;;;24.90;75.54
63190;BME280;49286;44.460;26.114;2023-06-14T08:48:51;100344.03;;;24.82;78.57
63190;BME280;49286;44.460;26.114;2023-06-14T08:51:22;100289.19;;;24.42;78.36
63190;BME280;49286;44.460;26.114;2023-06-14T08:53:55;100322.00;;;25.06;76.63
63190;BME280;49286;44.460;26.114;2023-06-14T08:56:28;100390.00;;;24.76;77.55
63190;BME280;49286;44.460;26.114;2023-06-14T08:58:54;100327.97;;;24.67;76.31
63190;BME280;49286;44.460;26.114;2023-06-14T09:01:22;100312.09;;;24.92;73.69
63190;BME280;49286;44.460;26.114;2023-06-14T09:03:49;100391.50;;;25.41;71.33
63190;BME280;49286;44.460;26.114;2023-06-14T09:06:15;100338.53;;;26.13;69.73
63190;BME280;49286;44.460;26.114;2023-06-14T09:08:45;100413.00;;;26.52;65.82
63190;BME280;49286;44.460;26.114;2023-06-14T09:11:12;100398.19;;;26.05;67.52
63190;BME280;49286;44.460;26.114;2023-06-14T09:13:39;100408.78;;;24.76;76.12
63190;BME280;49286;44.460;26.114;2023-06-14T09:16:05;100410.66;;;25.78;73.42
63190;BME280;49286;44.460;26.114;2023-06-14T09:18:43;100368.06;;;26.55;70.51
63190;BME280;49286;44.460;26.114;2023-06-14T09:21:10;100292.81;;;26.26;60.24
63190;BME280;49286;44.460;26.114;2023-06-14T09:23:44;100413.47;;;25.76;67.59
63190;BME280;49286;44.460;26.114;2023-06-14T09:28:42;100309.25;;;25.94;68.80
63190;BME280;49286;44.460;26.114;2023-06-14T09:31:10;100389.53;;;26.42;65.72
63190;BME280;49286;44.460;26.114;2023-06-14T09:33:36;100333.16;;;27.31;63.90
63190;BME280;49286;44.460;26.114;2023-06-14T09:36:05;100275.47;;;26.17;64.44
63190;BME280;49286;44.460;26.114;2023-06-14T09:38:34;100392.16;;;27.09;61.16
63190;BME280;49286;44.460;26.114;2023-06-14T09:41:03;100307.28;;;27.03;58.47
63190;BME280;49286;44.460;26.114;2023-06-14T09:43:30;100359.59;;;27.76;60.45
63190;BME280;49286;44.460;26.114;2023-06-14T09:46:00;100390.59;;;27.32;59.56
63190;BME280;49286;44.460;26.114;2023-06-14T09:48:26;100380.56;;;28.46;56.34
63190;BME280;49286;44.460;26.114;2023-06-14T09:50:52;100306.81;;;27.97;55.38
63190;BME280;49286;44.460;26.114;2023-06-14T09:53:21;100394.22;;;27.18;58.02
63190;BME280;49286;44.460;26.114;2023-06-14T09:55:49;100376.53;;;26.21;62.06
63190;BME280;49286;44.460;26.114;2023-06-14T09:58:16;100302.41;;;25.61;64.47
63190;BME280;49286;44.460;26.114;2023-06-14T10:00:43;100309.13;;;25.68;64.91
63190;BME280;49286;44.460;26.114;2023-06-14T10:03:13;100390.78;;;26.36;63.28
63190;BME280;49286;44.460;26.114;2023-06-14T10:05:42;100356.50;;;26.92;60.01
63190;BME280;49286;44.460;26.114;2023-06-14T10:08:10;100344.91;;;27.93;57.04
63190;BME280;49286;44.460;26.114;2023-06-14T10:10:39;100347.75;;;28.75;56.70
63190;BME280;49286;44.460;26.114;2023-06-14T10:13:07;100366.16;;;27.97;55.88
63190;BME280;49286;44.460;26.114;2023-06-14T10:15:41;100376.38;;;27.43;57.42
63190;BME280;49286;44.460;26.114;2023-06-14T10:24:10;100338.06;;;26.99;55.70
63190;BME280;49286;44.460;26.114;2023-06-14T10:26:51;100304.50;;;26.52;55.99
63190;BME280;49286;44.460;26.114;2023-06-14T10:29:17;100334.06;;;25.99;60.35
63190;BME280;49286;44.460;26.114;2023-06-14T10:31:44;100262.53;;;24.98;63.54
63190;BME280;49286;44.460;26.114;2023-06-14T10:34:11;100332.47;;;25.39;64.66
63190;BME280;49286;44.460;26.114;2023-06-14T10:36:41;100286.72;;;25.82;63.56
63190;BME280;49286;44.460;26.114;2023-06-14T10:39:07;100303.59;;;25.84;62.76
63190;BME280;49286;44.460;26.114;2023-06-14T10:41:38;100366.44;;;26.25;62.64
63190;BME280;49286;44.460;26.114;2023-06-14T10:46:41;100348.66;;;25.09;68.44
63190;BME280;49286;44.460;26.114;2023-06-14T10:49:15;100377.47;;;26.47;63.34
63190;BME280;49286;44.460;26.114;2023-06-14T10:51:42;100355.28;;;25.61;67.19
63190;BME280;49286;44.460;26.114;2023-06-14T10:54:20;100354.72;;;25.70;67.84
63190;BME280;49286;44.460;26.114;2023-06-14T10:56:50;100369.94;;;26.40;65.91
63190;BME280;49286;44.460;26.114;2023-06-14T10:59:16;100269.84;;;26.07;61.46
63190;BME280;49286;44.460;26.114;2023-06-14T11:04:34;100239.88;;;25.86;64.71
63190;BME280;49286;44.460;26.114;2023-06-14T11:10:43;100377.53;;;27.13;61.18
63190;BME280;49286;44.460;26.114;2023-06-14T11:13:11;100352.53;;;27.11;60.49
63190;BME280;49286;44.460;26.114;2023-06-14T11:15:38;100355.81;;;26.76;61.91
63190;BME280;49286;44.460;26.114;2023-06-14T11:18:09;100294.97;;;26.21;63.17
63190;BME280;49286;44.460;26.114;2023-06-14T11:20:35;100363.25;;;26.45;63.22
63190;BME280;49286;44.460;26.114;2023-06-14T11:23:02;100351.53;;;26.46;63.91
63190;BME280;49286;44.460;26.114;2023-06-14T11:25:28;100244.22;;;25.75;62.33
63190;BME280;49286;44.460;26.114;2023-06-14T11:27:56;100362.66;;;25.86;66.82
63190;BME280;49286;44.460;26.114;2023-06-14T11:30:21;100348.81;;;25.36;72.35
63190;BME280;49286;44.460;26.114;2023-06-14T11:32:52;100254.78;;;25.08;68.67
63190;BME280;49286;44.460;26.114;2023-06-14T11:35:19;100248.34;;;24.81;71.74
63190;BME280;49286;44.460;26.114;2023-06-14T11:37:48;100331.16;;;25.18;70.97
63190;BME280;49286;44.460;26.114;2023-06-14T11:40:15;100254.09;;;24.75;72.81
63190;BME280;49286;44.460;26.114;2023-06-14T11:42:41;100258.25;;;25.24;70.39
63190;BME280;49286;44.460;26.114;2023-06-14T11:45:08;100242.59;;;25.02;69.07
63190;BME280;49286;44.460;26.114;2023-06-14T11:47:39;100250.75;;;25.15;69.13
63190;BME280;49286;44.460;26.114;2023-06-14T11:50:07;100135.75;;;24.66;65.80
63190;BME280;49286;44.460;26.114;2023-06-14T11:52:33;100343.97;;;25.56;70.81
63190;BME280;49286;44.460;26.114;2023-06-14T11:54:59;100315.00;;;25.46;70.12
63190;BME280;49286;44.460;26.114;2023-06-14T11:57:25;100336.31;;;25.64;72.06
63190;BME280;49286;44.460;26.114;2023-06-14T11:59:52;100315.72;;;25.77;70.94
63190;BME280;49286;44.460;26.114;2023-06-14T12:02:21;100328.63;;;26.14;68.80
63190;BME280;49286;44.460;26.114;2023-06-14T12:04:47;100246.38;;;25.55;67.37
63190;BME280;49286;44.460;26.114;2023-06-14T12:07:16;100287.22;;;25.75;66.53
63190;BME280;49286;44.460;26.114;2023-06-14T12:10:08;100282.69;;;25.48;69.07
63190;BME280;49286;44.460;26.114;2023-06-14T12:12:38;100252.75;;;25.81;65.78
63190;BME280;49286;44.460;26.114;2023-06-14T12:15:06;100321.91;;;26.33;65.59
63190;BME280;49286;44.460;26.114;2023-06-14T12:17:36;100324.50;;;26.35;66.98
63190;BME280;49286;44.460;26.114;2023-06-14T12:20:10;100320.41;;;26.29;67.74
63190;BME280;49286;44.460;26.114;2023-06-14T12:22:55;100257.81;;;25.86;66.45
63190;BME280;49286;44.460;26.114;2023-06-14T12:27:55;100314.25;;;26.27;65.78
63190;BME280;49286;44.460;26.114;2023-06-14T12:30:22;100330.47;;;26.53;68.64
63190;BME280;49286;44.460;26.114;2023-06-14T12:32:47;100227.38;;;25.58;64.79
63190;BME280;49286;44.460;26.114;2023-06-14T12:35:13;100249.00;;;25.57;65.04
63190;BME280;49286;44.460;26.114;2023-06-14T12:37:39;100265.53;;;25.22;67.54
63190;BME280;49286;44.460;26.114;2023-06-14T12:40:05;100200.28;;;25.34;68.50
63190;BME280;49286;44.460;26.114;2023-06-14T12:42:32;100223.28;;;25.53;68.00
63190;BME280;49286;44.460;26.114;2023-06-14T12:44:59;100210.88;;;24.94;70.42
63190;BME280;49286;44.460;26.114;2023-06-14T12:47:25;100278.34;;;25.60;70.20
63190;BME280;49286;44.460;26.114;2023-06-14T12:49:51;100288.19;;;25.88;68.27
63190;BME280;49286;44.460;26.114;2023-06-14T12:52:16;100196.25;;;25.41;69.95
63190;BME280;49286;44.460;26.114;2023-06-14T12:54:42;100229.06;;;25.74;68.12
63190;BME280;49286;44.460;26.114;2023-06-14T12:57:08;100301.88;;;25.83;66.88